createdAt,value
2023-04-10T00:10:42.458Z,23.4
2023-04-10T00:30:42.453Z,23.4
2023-04-10T00:50:42.465Z,23.39
2023-04-10T01:10:42.435Z,23.39
2023-04-10T01:30:42.508Z,23.38
2023-04-10T01:50:42.431Z,23.38
2023-04-10T02:10:42.415Z,23.38
2023-04-10T02:30:42.419Z,23.38
2023-04-10T02:50:42.412Z,23.37
2023-04-10T03:10:42.403Z,23.37
2023-04-10T03:30:42.399Z,23.37
2023-04-10T03:50:42.393Z,23.37
2023-04-10T04:10:41.632Z,23.37
2023-04-10T04:30:41.852Z,23.36
2023-04-10T04:50:42.396Z,23.36
2023-04-10T05:10:42.411Z,23.36
2023-04-10T05:30:42.412Z,23.36
2023-04-10T05:50:42.236Z,23.36
2023-04-10T06:10:42.377Z,23.35
2023-04-10T06:30:41.834Z,23.35
2023-04-10T06:50:41.586Z,23.35
2023-04-10T07:10:42.351Z,23.35
2023-04-10T07:30:42.348Z,23.35
2023-04-10T07:50:41.836Z,23.35
2023-04-10T08:10:42.347Z,23.35
2023-04-10T08:30:42.381Z,23.35
2023-04-10T08:50:42.341Z,23.35
2023-04-10T09:10:42.359Z,23.35
2023-04-10T09:30:42.320Z,23.34
2023-04-10T09:50:41.813Z,23.34
2023-04-10T10:10:42.318Z,23.34
2023-04-10T10:30:42.348Z,23.34
2023-04-10T11:10:42.296Z,23.34
2023-04-10T11:30:42.301Z,23.34
2023-04-10T11:50:41.762Z,23.34
2023-04-10T12:10:41.745Z,23.34
2023-04-10T12:30:41.721Z,23.33
2023-04-10T12:50:41.469Z,23.33
2023-04-10T13:10:42.291Z,23.33
2023-04-10T13:30:42.123Z,23.33
2023-04-10T13:50:42.212Z,23.33
2023-04-10T14:10:41.082Z,23.32
2023-04-10T14:30:42.208Z,23.32
2023-04-10T14:50:42.207Z,23.32
2023-04-10T15:10:42.274Z,23.31
2023-04-10T15:30:42.186Z,23.31
2023-04-10T15:50:42.183Z,23.3
2023-04-10T17:10:42.153Z,23.29
2023-04-10T17:30:41.611Z,23.28
2023-04-10T17:50:42.007Z,23.28
2023-04-10T18:10:42.156Z,23.29
2023-04-10T18:30:42.161Z,23.28
2023-04-10T19:10:42.086Z,23.27
2023-04-10T19:30:42.088Z,23.27
2023-04-10T20:50:41.292Z,23.27
2023-04-10T21:30:42.043Z,23.27
2023-04-10T21:50:42.028Z,23.28
2023-04-10T22:10:42.018Z,23.28
2023-04-10T22:30:42.027Z,23.29
2023-04-10T22:50:41.467Z,23.3
2023-04-10T23:30:41.991Z,23.31
2023-04-10T23:50:41.986Z,23.31
